Ameland Airport Ballum

EHAL · Friesland, 荷兰

使用的TAF站离机场有26 km的距离
2024年6月23日 11:002024年6月23日 23:00有效
时间
星期日
11:00
星期日
12:00
星期日
13:00
星期日
14:00
星期日
15:00
星期日
16:00
星期日
17:00
星期日
18:00
星期日
19:00
星期日
20:00
星期日
21:00
星期日
22:00
代码
VFR
VFR
VFR
VFR
VFR
VFR
VFR
VFR
VFR
VFR
VFR
VFR
天气
疏云,零星散落的云朵
疏云,零星散落的云朵
疏云,零星散落的云朵
疏云,零星散落的云朵
疏云,零星散落的云朵
疏云,零星散落的云朵
疏云,零星散落的云朵
疏云,零星散落的云朵
疏云,零星散落的云朵
疏云,零星散落的云朵
疏云,零星散落的云朵
疏云,零星散落的云朵
能见度
10 km+
10 km+
10 km+
10 km+
10 km+
10 km+
10 km+
10 km+
10 km+
10 km+
10 km+
10 km+
天花板
-
-
-
-
-
-
-
-
-
-
-
-
250°
250°
250°
250°
250°
250°
250°
250°
250°
250°
250°
250°
250°
250°
250°
250°
250°
250°
Var
Var
Var
Var
Var
Var
速度
5 kt
5 kt
5 kt
5 kt
5 kt
5 kt
5 kt
5 kt
5 kt
5 kt
5 kt
5 kt
阵风
温度/星期日
22:08

原版的

TAF EHLW 230838Z 2309/2321 25005KT 9999 FEW018 SCT020
BECMG 2318/2321 VRB02KT

TAF Ameland Airport Ballum

Ameland Airport Ballum是,荷兰中的小机场。 该机场位于纬度53,45361和经度5,67840。 该机场有一条跑道: 8/26. 本场的ICAO机场代码为EHAL。 机场在Amsterdam FIR中。

该航空气象观测是针对Leeuwarden Air Base在2024年6月23日 10:38, 当地时间进行的。 从2024年6月23日 11:00到2024年6月23日 23:00, 当地时间有效.

预报

  • 在星期日 11:00和23:00之间

    • 风: 风来自250°方向,速度为5 kt。
    • 能见度: 10 km 或者更多
    • 乌云: 几云在1.800 ft的高度 和 疏云,零星散落的云朵在2.000 ft的高度.
  • 介于星期日 20:00和23:00之间

    • 风: 可变方向的风很小或没有。

白天

今天,太阳从05:08升起,在22:10降落。 这适用于Ameland Airport Ballum,世界夏令时可能有所不同。 当地时间与世界标准时间之间的时差为+2 小时。 夏令时目前正在进行中。

报告变更